Weather Data

Pearl Creek Farm: 8878 N Farm Road 75, Walnut Grove MO 65770

<== Previous Day (Thursday 09 Jan 2020) | Next Day (Saturday 11 Jan 2020) ==>

Summary Precipitation Data For Friday 10 January 2020

ElementValueUnits
Precipitation0.29"
Notes(none)
SourcePearl Creek Farm

Summary Temperature Data For Friday 10 January 2020

ElementValueUnits
High Temperature64 oF
Low Temperature35 oF
Average Temperature55 oF
High Humidity100 %
Low Humidity84 %
Average Humidity96 %
SourceSpringfield-Branson National Airport (SGF)

Detail Temperature Data For Friday 10 January 2020

Date / TimeTemp (F)RH (%)Dew Pt (F)Report Date / TimeSource
2020-01-10 00:52:00 55 100 55.0 2021-01-15 18:54:53.841352 Springfield-Branson National Airport (SGF)
2020-01-10 01:52:00 56 100 56.0 2021-01-15 18:54:53.841352 Springfield-Branson National Airport (SGF)
2020-01-10 02:52:00 56 100 56.0 2021-01-15 18:54:53.841352 Springfield-Branson National Airport (SGF)
2020-01-10 03:52:00 57 100 57.0 2021-01-15 18:54:53.841352 Springfield-Branson National Airport (SGF)
2020-01-10 04:52:00 57 96 56.0 2021-01-15 18:54:53.841352 Springfield-Branson National Airport (SGF)
2020-01-10 05:52:00 57 100 57.0 2021-01-15 18:54:53.841352 Springfield-Branson National Airport (SGF)
2020-01-10 06:52:00 57 100 57.0 2021-01-15 18:54:53.841352 Springfield-Branson National Airport (SGF)
2020-01-10 07:52:00 57 96 56.0 2021-01-15 18:54:53.841352 Springfield-Branson National Airport (SGF)
2020-01-10 08:52:00 59 93 57.0 2021-01-15 18:54:53.841352 Springfield-Branson National Airport (SGF)
2020-01-10 09:52:00 60 93 58.0 2021-01-15 18:54:53.841352 Springfield-Branson National Airport (SGF)
2020-01-10 10:52:00 63 90 60.0 2021-01-15 18:54:53.841352 Springfield-Branson National Airport (SGF)
2020-01-10 11:52:00 63 87 59.0 2021-01-15 18:54:53.841352 Springfield-Branson National Airport (SGF)
2020-01-10 12:52:00 64 84 59.0 2021-01-15 18:54:53.841352 Springfield-Branson National Airport (SGF)
2020-01-10 13:52:00 61 93 59.0 2021-01-15 18:54:53.841352 Springfield-Branson National Airport (SGF)
2020-01-10 14:52:00 61 93 59.0 2021-01-15 18:54:53.841352 Springfield-Branson National Airport (SGF)
2020-01-10 15:52:00 61 97 60.0 2021-01-15 18:54:53.841352 Springfield-Branson National Airport (SGF)
2020-01-10 16:52:00 61 97 60.0 2021-01-15 18:54:53.841352 Springfield-Branson National Airport (SGF)
2020-01-10 17:52:00 55 100 55.0 2021-01-15 18:54:53.841352 Springfield-Branson National Airport (SGF)
2020-01-10 18:52:00 54 97 53.0 2021-01-15 18:54:53.841352 Springfield-Branson National Airport (SGF)
2020-01-10 19:52:00 53 96 52.0 2021-01-15 18:54:53.841352 Springfield-Branson National Airport (SGF)
2020-01-10 20:52:00 47 97 46.0 2021-01-15 18:54:53.841352 Springfield-Branson National Airport (SGF)
2020-01-10 21:52:00 38 97 37.0 2021-01-15 18:54:53.841352 Springfield-Branson National Airport (SGF)
2020-01-10 22:52:00 35 100 35.0 2021-01-15 18:54:53.841352 Springfield-Branson National Airport (SGF)
2020-01-10 23:52:00 35 100 35.0 2021-01-15 18:54:53.841352 Springfield-Branson National Airport (SGF)

A total of 24 rows are displayed.